Terminal Aerodrome Forecast
Issued by NWS

Home | Current Version | Previous Version | Text Only | Print | Product List | Glossary On
Versions: 1 2 3 4 5 6 7 8 9 10 11 12 13 14 15 16
000
FTUS46 KLOX 191700
TAFOXR
TAF
KOXR 191725Z 1918/2018 30004KT P6SM BKN023
     FM191900 25007KT P6SM BKN035
     FM192000 27010KT P6SM SCT035
     FM200300 VRB03KT P6SM SCT018
     FM200700 VRB03KT P6SM BKN019=

USA.gov is the U.S. government's official web portal to all federal, state and local government web resources and services.